Time;durP1;ratioP1;P1;durP2;ratioP2;P2;SDS_P1;SDS_P2;PMS_P1;PMS_P2;Temp;Humidity;BMP_temperature;BMP_pressure;BME280_temperature;BME280_humidity;BME280_pressure;Samples;Min_cycle;Max_cycle;Signal;HPM_P1;HPM_P2
2022/11/20 00:02:20;;;;;;;20.40;12.80;;;0.50;99.90;;;;;;4917538;29;20099;-83
2022/11/20 00:04:46;;;;;;;20.75;12.95;;;0.50;99.90;;;;;;4916671;29;20046;-82
2022/11/20 00:07:11;;;;;;;20.10;12.95;;;0.50;99.90;;;;;;4918868;29;20059;-83
2022/11/20 00:09:37;;;;;;;21.33;12.52;;;0.50;99.90;;;;;;4917340;29;20048;-83
2022/11/20 00:12:03;;;;;;;20.92;12.95;;;0.60;99.90;;;;;;4918534;29;20052;-83
2022/11/20 00:14:28;;;;;;;21.15;12.30;;;0.60;99.90;;;;;;4917990;29;20056;-82
2022/11/20 00:16:54;;;;;;;20.50;13.30;;;0.60;99.90;;;;;;4916914;29;20048;-83
2022/11/20 00:19:19;;;;;;;17.80;11.73;;;0.60;99.90;;;;;;4918204;29;20051;-83
2022/11/20 00:21:45;;;;;;;20.67;12.30;;;0.60;99.90;;;;;;4916933;29;20134;-83
2022/11/20 00:24:11;;;;;;;17.50;12.43;;;0.60;99.90;;;;;;4917263;29;20071;-82
2022/11/20 00:26:37;;;;;;;20.13;11.40;;;0.60;99.90;;;;;;4917498;29;20519;-82
2022/11/20 00:29:03;;;;;;;16.33;11.00;;;0.60;99.90;;;;;;4917306;29;20040;-83
2022/11/20 00:31:29;;;;;;;18.63;11.38;;;0.60;99.90;;;;;;4916679;29;20054;-82
2022/11/20 00:33:55;;;;;;;17.25;10.60;;;0.70;99.90;;;;;;4917953;29;20519;-82
2022/11/20 00:36:24;;;;;;;17.15;11.10;;;0.70;99.90;;;;;;4916654;29;20062;-82
2022/11/20 00:38:53;;;;;;;17.67;11.13;;;0.70;99.90;;;;;;4917942;29;20131;-82
2022/11/20 00:41:19;;;;;;;17.15;11.20;;;0.80;99.90;;;;;;4916447;29;20134;-82
2022/11/20 00:43:44;;;;;;;16.88;10.27;;;0.70;99.90;;;;;;4915760;29;20124;-82
2022/11/20 00:46:17;;;;;;;16.45;10.48;;;0.80;99.90;;;;;;4916448;29;20048;-83
2022/11/20 00:48:44;;;;;;;18.52;10.75;;;0.80;99.90;;;;;;4917552;29;20040;-82
2022/11/20 00:51:11;;;;;;;16.77;10.35;;;0.80;99.90;;;;;;4915436;29;20050;-82
2022/11/20 00:53:37;;;;;;;14.55;9.93;;;0.80;99.90;;;;;;4917414;29;20044;-82
2022/11/20 00:56:06;;;;;;;15.25;10.27;;;0.90;99.90;;;;;;4917450;29;20084;-82
2022/11/20 00:58:34;;;;;;;15.30;9.95;;;0.80;99.90;;;;;;4915279;29;20111;-83
2022/11/20 01:01:11;;;;;;;15.65;9.93;;;0.90;99.90;;;;;;4917284;29;20460;-82
2022/11/20 01:03:40;;;;;;;14.18;9.55;;;0.90;99.90;;;;;;4898837;29;20044;-82
2022/11/20 01:06:10;;;;;;;13.75;9.55;;;0.90;99.90;;;;;;4901088;29;20051;-82
2022/11/20 01:08:36;;;;;;;15.27;9.77;;;0.90;99.90;;;;;;4917512;29;20047;-82
2022/11/20 01:11:05;;;;;;;14.73;10.07;;;1.00;99.90;;;;;;4914923;29;20076;-82
2022/11/20 01:13:37;;;;;;;15.43;9.95;;;0.90;99.90;;;;;;4916514;29;20052;-82
2022/11/20 01:16:13;;;;;;;13.90;9.15;;;1.00;99.90;;;;;;4916615;29;20040;-82
2022/11/20 01:18:40;;;;;;;14.77;9.45;;;1.00;99.90;;;;;;4914640;29;20083;-82
2022/11/20 01:21:08;;;;;;;14.43;9.55;;;1.00;99.90;;;;;;4917609;29;20052;-82
2022/11/20 01:23:36;;;;;;;14.50;9.32;;;1.00;99.90;;;;;;4917248;29;20055;-82
2022/11/20 01:26:04;;;;;;;15.65;9.98;;;1.00;99.90;;;;;;4916652;29;20052;-82
2022/11/20 01:28:31;;;;;;;13.77;9.25;;;1.00;99.90;;;;;;4915717;29;20119;-82
2022/11/20 01:30:56;;;;;;;14.48;8.68;;;1.00;99.90;;;;;;4916288;29;20056;-82
2022/11/20 01:33:22;;;;;;;13.65;9.07;;;1.00;99.90;;;;;;4915861;29;20042;-82
2022/11/20 01:35:48;;;;;;;14.27;9.45;;;1.00;99.90;;;;;;4915977;29;20135;-82
2022/11/20 01:38:15;;;;;;;15.70;9.90;;;1.00;99.90;;;;;;4916068;29;20055;-82
2022/11/20 01:40:40;;;;;;;14.93;9.18;;;1.00;99.90;;;;;;4914556;29;20056;-82
2022/11/20 01:43:22;;;;;;;14.13;9.07;;;1.00;99.90;;;;;;4916357;29;20056;-82
2022/11/20 01:46:00;;;;;;;15.00;9.13;;;1.00;99.90;;;;;;4915504;29;20044;-83
2022/11/20 01:48:44;;;;;;;14.27;9.43;;;1.00;99.90;;;;;;4916879;29;20051;-82
2022/11/20 01:51:16;;;;;;;;;;;1.00;99.90;;;;;;4916960;29;20056;-82
2022/11/20 01:53:43;;;;;;;16.15;9.10;;;0.90;99.90;;;;;;4914920;29;20041;-82
2022/11/20 01:56:11;;;;;;;13.63;9.23;;;0.90;99.90;;;;;;4917015;29;20067;-82
2022/11/20 01:58:43;;;;;;;18.27;9.13;;;0.90;99.90;;;;;;4916147;29;20048;-82
2022/11/20 02:01:09;;;;;;;15.13;9.50;;;0.90;99.90;;;;;;4915351;29;20060;-82
2022/11/20 02:03:36;;;;;;;13.55;9.30;;;1.00;99.90;;;;;;4919924;29;20064;-83
2022/11/20 02:06:27;;;;;;;13.57;9.02;;;0.90;99.90;;;;;;4919880;29;20062;-82
2022/11/20 02:08:54;;;;;;;14.93;9.13;;;1.00;99.90;;;;;;4919489;29;20533;-82
2022/11/20 02:11:20;;;;;;;13.35;8.70;;;1.00;99.90;;;;;;4919298;29;20433;-82
2022/11/20 02:13:46;;;;;;;13.45;8.02;;;1.00;99.90;;;;;;4918866;29;20048;-82
2022/11/20 02:16:28;;;;;;;13.50;9.02;;;1.00;99.90;;;;;;4918375;29;20048;-82
2022/11/20 02:18:56;;;;;;;12.70;8.98;;;1.00;99.90;;;;;;4918810;29;20673;-82
2022/11/20 02:21:38;;;;;;;14.45;8.85;;;1.00;99.90;;;;;;4919616;29;20446;-82
2022/11/20 02:24:23;;;;;;;14.77;8.75;;;1.00;99.90;;;;;;4918885;29;20055;-83
2022/11/20 02:27:06;;;;;;;14.30;9.15;;;1.00;99.90;;;;;;4920232;29;20050;-82
2022/11/20 02:29:50;;;;;;;13.52;8.95;;;1.00;99.90;;;;;;4918230;29;20052;-82
2022/11/20 02:32:31;;;;;;;13.38;7.95;;;1.00;99.90;;;;;;4920018;29;20048;-82
2022/11/20 02:34:57;;;;;;;13.13;8.73;;;1.00;99.90;;;;;;4919750;29;20090;-82
2022/11/20 02:37:32;;;;;;;12.57;8.82;;;1.00;99.90;;;;;;4918626;29;20056;-82
2022/11/20 02:39:57;;;;;;;13.65;8.75;;;1.00;99.90;;;;;;4918280;29;20048;-82
2022/11/20 02:42:23;;;;;;;13.15;8.50;;;1.00;99.90;;;;;;4919464;29;20195;-82
2022/11/20 02:44:49;;;;;;;12.20;8.27;;;1.00;99.90;;;;;;4917993;29;20036;-82
2022/11/20 02:47:14;;;;;;;14.43;8.45;;;1.00;99.90;;;;;;4920344;29;20071;-83
2022/11/20 02:49:40;;;;;;;13.43;9.10;;;1.00;99.90;;;;;;4918824;29;20056;-82
2022/11/20 02:52:05;;;;;;;13.32;7.97;;;1.00;99.90;;;;;;4918621;29;20048;-83
2022/11/20 02:54:31;;;;;;;13.52;8.98;;;1.00;99.90;;;;;;4919545;29;20048;-82
2022/11/20 02:56:56;;;;;;;13.00;8.55;;;1.10;99.90;;;;;;4918892;29;20084;-82
2022/11/20 02:59:22;;;;;;;12.40;8.35;;;1.10;99.90;;;;;;4920021;29;20104;-83
2022/11/20 03:01:48;;;;;;;13.05;7.75;;;1.10;99.90;;;;;;4918548;29;20130;-83
2022/11/20 03:04:13;;;;;;;13.05;8.60;;;1.10;99.90;;;;;;4919530;29;20055;-82
2022/11/20 03:06:39;;;;;;;12.45;8.23;;;1.10;99.90;;;;;;4919477;29;20047;-83
2022/11/20 03:09:05;;;;;;;13.13;8.73;;;1.20;99.90;;;;;;4918438;29;20411;-82
2022/11/20 03:11:30;;;;;;;12.13;8.27;;;1.20;99.90;;;;;;4917288;29;20055;-82
2022/11/20 03:13:56;;;;;;;13.75;8.60;;;1.10;99.90;;;;;;4918898;29;20048;-82
2022/11/20 03:16:23;;;;;;;12.30;8.00;;;1.10;99.90;;;;;;4917987;29;20118;-82
2022/11/20 03:18:49;;;;;;;12.10;8.55;;;1.20;99.90;;;;;;4919248;29;20063;-82
2022/11/20 03:21:16;;;;;;;11.82;8.38;;;1.20;99.90;;;;;;4918206;29;20056;-82
2022/11/20 03:23:41;;;;;;;14.43;8.50;;;1.20;99.90;;;;;;4917724;29;20131;-83
2022/11/20 03:26:08;;;;;;;12.70;8.48;;;1.20;99.90;;;;;;4916813;29;20188;-82
2022/11/20 03:28:34;;;;;;;14.60;8.75;;;1.20;99.90;;;;;;4917788;29;20036;-82
2022/11/20 03:31:05;;;;;;;12.93;9.05;;;1.20;99.90;;;;;;4918968;29;20040;-82
2022/11/20 03:33:31;;;;;;;12.98;8.50;;;1.30;99.90;;;;;;4917000;29;20049;-83
2022/11/20 03:36:01;;;;;;;12.88;8.40;;;1.30;99.90;;;;;;4918695;29;20059;-82
2022/11/20 03:38:31;;;;;;;12.68;8.48;;;1.30;99.90;;;;;;4919299;29;20048;-82
2022/11/20 03:41:11;;;;;;;12.60;8.50;;;1.30;99.90;;;;;;4918442;29;20056;-82
2022/11/20 03:43:37;;;;;;;13.13;8.30;;;1.30;99.90;;;;;;4898783;29;20044;-83
2022/11/20 03:46:04;;;;;;;13.98;8.35;;;1.40;99.90;;;;;;4910060;29;20055;-82
2022/11/20 03:48:29;;;;;;;12.13;8.50;;;1.30;99.90;;;;;;4917150;29;20148;-82
2022/11/20 03:51:16;;;;;;;12.23;7.93;;;1.30;99.90;;;;;;4917355;29;20036;-82
2022/11/20 03:53:43;;;;;;;12.40;8.48;;;1.30;99.90;;;;;;4916261;29;20048;-82
2022/11/20 03:56:09;;;;;;;13.57;8.85;;;1.30;99.90;;;;;;4917669;29;20044;-82
2022/11/20 03:58:37;;;;;;;12.07;8.57;;;1.30;99.90;;;;;;4916780;29;20118;-82
2022/11/20 04:01:14;;;;;;;11.93;8.23;;;1.30;99.90;;;;;;4931962;29;20131;-82
2022/11/20 04:03:41;;;;;;;12.32;8.30;;;1.30;99.90;;;;;;4917165;29;20052;-82
2022/11/20 04:06:15;;;;;;;13.13;8.57;;;1.30;99.90;;;;;;4918273;29;20051;-82
2022/11/20 04:08:42;;;;;;;13.27;8.80;;;1.30;99.90;;;;;;4917149;29;20088;-83
2022/11/20 04:11:18;;;;;;;12.48;8.38;;;1.30;99.90;;;;;;4918773;29;20044;-82
2022/11/20 04:13:53;;;;;;;13.73;8.88;;;1.40;99.90;;;;;;4916133;29;20050;-82
2022/11/20 04:16:19;;;;;;;12.60;8.68;;;1.30;99.90;;;;;;4918575;29;20405;-82
2022/11/20 04:18:45;;;;;;;12.65;8.90;;;1.30;99.90;;;;;;4916452;29;20052;-82
2022/11/20 04:21:11;;;;;;;13.13;9.02;;;1.30;99.90;;;;;;4915780;29;20047;-82
2022/11/20 04:23:37;;;;;;;13.60;8.57;;;1.30;99.90;;;;;;4916483;29;20056;-83
2022/11/20 04:26:05;;;;;;;12.60;9.10;;;1.30;99.90;;;;;;4916207;29;20416;-82
2022/11/20 04:28:31;;;;;;;12.18;8.57;;;1.30;99.90;;;;;;4917217;29;20040;-82
2022/11/20 04:31:04;;;;;;;13.63;8.45;;;1.30;99.90;;;;;;4917997;29;20040;-82
2022/11/20 04:33:29;;;;;;;12.48;8.50;;;1.40;99.90;;;;;;4917792;29;20051;-82
2022/11/20 04:35:59;;;;;;;14.00;8.75;;;1.30;99.90;;;;;;4916262;29;20060;-82
2022/11/20 04:38:25;;;;;;;12.95;8.75;;;1.30;99.90;;;;;;4917967;29;20032;-82
2022/11/20 04:40:50;;;;;;;12.75;9.30;;;1.30;99.90;;;;;;4916325;29;20044;-82
2022/11/20 04:43:16;;;;;;;12.75;8.40;;;1.30;99.90;;;;;;4915606;29;20500;-82
2022/11/20 04:45:41;;;;;;;12.38;8.32;;;1.40;99.90;;;;;;4917823;29;20059;-82
2022/11/20 04:48:07;;;;;;;12.68;8.27;;;1.30;99.90;;;;;;4917643;29;20036;-82
2022/11/20 04:50:33;;;;;;;13.50;8.85;;;1.40;99.90;;;;;;4916818;29;20488;-82
2022/11/20 04:52:58;;;;;;;13.30;9.13;;;1.30;99.90;;;;;;4916436;29;20047;-82
2022/11/20 04:55:24;;;;;;;12.88;8.60;;;1.40;99.90;;;;;;4916763;29;20044;-82
2022/11/20 04:57:51;;;;;;;15.93;9.32;;;1.30;99.90;;;;;;4916556;29;20052;-82
2022/11/20 05:00:17;;;;;;;13.55;9.05;;;1.40;99.90;;;;;;4917120;29;20051;-82
2022/11/20 05:02:42;;;;;;;13.18;8.73;;;1.40;99.90;;;;;;4915960;29;20063;-82
2022/11/20 05:05:08;;;;;;;14.45;9.57;;;1.40;99.90;;;;;;4917335;29;20051;-83
2022/11/20 05:07:33;;;;;;;13.65;9.02;;;1.40;99.90;;;;;;4917782;29;20040;-82
2022/11/20 05:09:59;;;;;;;13.75;8.98;;;1.40;99.90;;;;;;4917043;29;20044;-82
2022/11/20 05:12:25;;;;;;;15.23;9.65;;;1.40;99.90;;;;;;4916873;29;20107;-83
2022/11/20 05:14:50;;;;;;;13.95;9.52;;;1.40;99.90;;;;;;4916511;29;20048;-82
2022/11/20 05:17:16;;;;;;;11.95;8.82;;;1.40;99.90;;;;;;4914994;29;20060;-83
2022/11/20 05:19:41;;;;;;;12.30;8.45;;;1.50;99.90;;;;;;4917211;29;20071;-82
2022/11/20 05:22:07;;;;;;;13.93;9.05;;;1.50;99.90;;;;;;4916176;29;20429;-82
2022/11/20 05:24:33;;;;;;;14.98;9.45;;;1.40;99.90;;;;;;4916142;29;20052;-82
2022/11/20 05:26:58;;;;;;;13.13;9.10;;;1.50;99.90;;;;;;4916972;29;20121;-82
2022/11/20 05:29:24;;;;;;;13.13;9.23;;;1.50;99.90;;;;;;4917000;29;20047;-82
2022/11/20 05:31:49;;;;;;;12.43;8.43;;;1.40;99.90;;;;;;4915039;29;20036;-82
2022/11/20 05:34:15;;;;;;;13.77;9.32;;;1.50;99.90;;;;;;4915987;29;20058;-82
2022/11/20 05:36:40;;;;;;;13.77;9.25;;;1.50;99.90;;;;;;4916931;29;20055;-83
2022/11/20 05:39:06;;;;;;;13.70;9.25;;;1.50;99.90;;;;;;4916125;29;20131;-83
2022/11/20 05:41:33;;;;;;;13.52;9.05;;;1.50;99.90;;;;;;4916448;29;20037;-83
2022/11/20 05:43:59;;;;;;;13.13;9.05;;;1.50;99.90;;;;;;4916966;29;20488;-83
2022/11/20 05:46:24;;;;;;;14.57;8.95;;;1.50;99.90;;;;;;4916079;29;20047;-83
2022/11/20 05:48:50;;;;;;;13.65;8.95;;;1.50;99.90;;;;;;4915343;29;20096;-83
2022/11/20 05:51:17;;;;;;;14.48;9.90;;;1.50;99.90;;;;;;4915242;29;20079;-82
2022/11/20 05:53:43;;;;;;;12.02;8.98;;;1.50;99.90;;;;;;4914683;29;20130;-83
2022/11/20 05:56:11;;;;;;;14.32;9.25;;;1.50;99.90;;;;;;4916959;29;20075;-83
2022/11/20 05:58:38;;;;;;;13.55;9.15;;;1.60;99.90;;;;;;4914957;29;20056;-83
2022/11/20 06:01:24;;;;;;;12.40;8.85;;;1.60;99.90;;;;;;4914584;29;20052;-83
2022/11/20 06:03:50;;;;;;;12.07;8.80;;;1.60;99.90;;;;;;4915900;29;20036;-82
2022/11/20 06:06:18;;;;;;;11.75;8.45;;;1.60;99.90;;;;;;4914631;29;20511;-83
2022/11/20 06:08:44;;;;;;;11.90;8.43;;;1.60;99.90;;;;;;4916276;29;20469;-83
2022/11/20 06:11:11;;;;;;;12.52;8.48;;;1.60;99.90;;;;;;4916584;29;20055;-83
2022/11/20 06:13:37;;;;;;;12.60;8.73;;;1.60;99.90;;;;;;4915453;29;20052;-83
2022/11/20 06:16:03;;;;;;;13.00;8.68;;;1.60;99.90;;;;;;4915995;29;20068;-83
2022/11/20 06:18:29;;;;;;;13.05;8.77;;;1.60;99.90;;;;;;4916357;29;20048;-83
2022/11/20 06:21:16;;;;;;;12.90;8.50;;;1.60;99.90;;;;;;4916299;29;20044;-83
2022/11/20 06:23:42;;;;;;;13.68;8.50;;;1.60;99.90;;;;;;4916379;29;20044;-83
2022/11/20 06:26:13;;;;;;;12.85;8.50;;;1.60;99.90;;;;;;4916105;29;20055;-83
2022/11/20 06:28:39;;;;;;;12.75;8.68;;;1.60;99.90;;;;;;4914790;29;20040;-82
2022/11/20 06:31:06;;;;;;;12.27;8.32;;;1.60;99.90;;;;;;4916630;29;20040;-83
2022/11/20 06:33:32;;;;;;;12.52;8.45;;;1.60;99.90;;;;;;4912438;29;20048;-83
2022/11/20 06:35:59;;;;;;;12.82;8.85;;;1.60;99.90;;;;;;4916178;29;20048;-83
2022/11/20 06:38:26;;;;;;;12.68;8.73;;;1.60;99.90;;;;;;4916311;29;20082;-83
2022/11/20 06:40:52;;;;;;;13.35;8.43;;;1.60;99.90;;;;;;4914981;29;20055;-83
2022/11/20 06:43:17;;;;;;;11.75;8.80;;;1.60;99.90;;;;;;4915494;29;20040;-83
2022/11/20 06:45:43;;;;;;;12.57;8.18;;;1.60;99.90;;;;;;4915186;29;20044;-83
2022/11/20 06:48:09;;;;;;;12.80;8.10;;;1.60;99.90;;;;;;4916293;29;20040;-84
2022/11/20 06:50:36;;;;;;;13.45;9.00;;;1.60;99.90;;;;;;4917675;29;20099;-83
2022/11/20 06:53:03;;;;;;;13.65;8.55;;;1.60;99.90;;;;;;4919584;29;20050;-83
2022/11/20 06:55:29;;;;;;;12.05;8.02;;;1.60;99.90;;;;;;4918181;29;20450;-83
2022/11/20 06:57:54;;;;;;;12.85;8.32;;;1.60;99.90;;;;;;4919850;29;20060;-83
2022/11/20 07:00:20;;;;;;;12.48;8.55;;;1.60;99.90;;;;;;4918473;29;20055;-83
2022/11/20 07:02:46;;;;;;;12.52;9.05;;;1.60;99.90;;;;;;4916661;29;20044;-82
2022/11/20 07:05:11;;;;;;;12.02;8.40;;;1.60;99.90;;;;;;4916571;29;20075;-83
2022/11/20 07:07:37;;;;;;;17.25;8.40;;;1.60;99.90;;;;;;4916162;29;20095;-85
2022/11/20 07:10:03;;;;;;;11.43;7.93;;;1.60;99.90;;;;;;4918323;29;20055;-84
2022/11/20 07:12:28;;;;;;;11.55;8.25;;;1.60;99.90;;;;;;4917297;29;20079;-81
2022/11/20 07:14:54;;;;;;;11.18;7.80;;;1.60;99.90;;;;;;4917107;29;20055;-82
2022/11/20 07:17:20;;;;;;;15.10;8.05;;;1.60;99.90;;;;;;4916985;29;20439;-82
2022/11/20 07:19:45;;;;;;;11.27;8.13;;;1.60;99.90;;;;;;4917445;29;20044;-81
2022/11/20 07:22:11;;;;;;;12.10;8.32;;;1.60;99.90;;;;;;4917563;29;20048;-87
2022/11/20 07:24:39;;;;;;;11.48;7.97;;;1.60;99.90;;;;;;4916627;29;20404;-88
2022/11/20 07:27:04;;;;;;;11.25;7.93;;;1.70;99.90;;;;;;4916508;29;20051;-87
2022/11/20 07:29:30;;;;;;;10.55;7.68;;;1.70;99.90;;;;;;4918590;29;20040;-87
2022/11/20 07:31:56;;;;;;;11.40;7.97;;;1.70;99.90;;;;;;4916683;29;20052;-83
2022/11/20 07:34:22;;;;;;;11.63;7.72;;;1.70;99.90;;;;;;4915487;29;20099;-83
2022/11/20 07:36:47;;;;;;;12.45;8.25;;;1.70;99.90;;;;;;4918054;29;20055;-82
2022/11/20 07:39:13;;;;;;;11.02;7.82;;;1.70;99.90;;;;;;4916165;29;20099;-84
2022/11/20 07:41:39;;;;;;;11.80;7.63;;;1.70;99.90;;;;;;4917855;29;20040;-83
2022/11/20 07:44:04;;;;;;;12.30;8.02;;;1.70;99.90;;;;;;4917881;29;20040;-83
2022/11/20 07:46:30;;;;;;;10.85;7.53;;;1.70;99.90;;;;;;4915005;29;20046;-83
2022/11/20 07:48:56;;;;;;;12.07;8.20;;;1.70;99.90;;;;;;4917614;29;20052;-84
2022/11/20 07:51:21;;;;;;;11.57;7.90;;;1.70;99.90;;;;;;4916573;29;20051;-84
2022/11/20 07:53:47;;;;;;;12.25;7.43;;;1.70;99.90;;;;;;4917923;29;20040;-85
2022/11/20 07:56:13;;;;;;;11.40;7.65;;;1.70;99.90;;;;;;4916269;29;20064;-83
2022/11/20 07:58:40;;;;;;;11.60;7.70;;;1.70;99.90;;;;;;4915161;29;20457;-85
2022/11/20 08:01:07;;;;;;;12.13;7.97;;;1.70;99.90;;;;;;4915777;29;20059;-86
2022/11/20 08:03:33;;;;;;;12.27;7.55;;;1.70;99.90;;;;;;4915872;29;20044;-84
2022/11/20 08:06:02;;;;;;;11.43;7.75;;;1.70;99.90;;;;;;4915950;29;20138;-84
2022/11/20 08:08:28;;;;;;;11.02;7.43;;;1.70;99.90;;;;;;4915536;29;20098;-86
2022/11/20 08:14:11;;;;;;;10.10;7.40;;;1.70;99.90;;;;;;4915783;29;20080;-86
2022/11/20 08:16:25;;;;;;;12.85;8.30;;;1.70;99.90;;;;;;4916204;29;20127;-84
2022/11/20 08:18:51;;;;;;;12.13;8.20;;;1.70;99.90;;;;;;4917242;29;20127;-87
2022/11/20 08:21:16;;;;;;;44.33;20.80;;;1.70;99.90;;;;;;4915850;29;20388;-85
2022/11/20 08:23:42;;;;;;;16.55;10.38;;;1.80;99.90;;;;;;4915708;29;20044;-86
2022/11/20 08:26:07;;;;;;;21.88;12.43;;;1.80;99.90;;;;;;4917061;29;20040;-85
2022/11/20 08:28:33;;;;;;;18.92;10.52;;;1.80;99.90;;;;;;4915398;29;20036;-88
2022/11/20 08:31:00;;;;;;;20.40;10.32;;;1.80;99.90;;;;;;4918275;29;20048;-88
2022/11/20 08:33:26;;;;;;;16.23;9.43;;;1.90;99.90;;;;;;4917996;29;20042;-87
2022/11/20 08:35:52;;;;;;;17.83;9.75;;;1.90;99.90;;;;;;4917500;29;20052;-87
2022/11/20 08:38:18;;;;;;;18.42;10.05;;;1.90;99.90;;;;;;4917276;29;20048;-87
2022/11/20 08:41:23;;;;;;;15.95;10.07;;;1.90;99.90;;;;;;4917360;29;20052;-88
2022/11/20 08:43:31;;;;;;;15.00;10.10;;;1.90;99.90;;;;;;4918216;29;20052;-88
2022/11/20 08:45:57;;;;;;;15.20;9.68;;;1.90;99.90;;;;;;4917027;29;20044;-88
2022/11/20 08:48:23;;;;;;;16.20;9.45;;;1.90;99.90;;;;;;4915718;29;20083;-87
2022/11/20 08:50:49;;;;;;;15.38;9.98;;;1.90;99.90;;;;;;4916471;29;20076;-87
2022/11/20 08:53:14;;;;;;;16.52;9.43;;;1.90;99.90;;;;;;4917382;29;20395;-88
2022/11/20 08:55:40;;;;;;;15.50;9.45;;;1.90;99.90;;;;;;4916895;29;20100;-88
2022/11/20 08:58:06;;;;;;;15.73;9.48;;;2.00;99.90;;;;;;4917265;29;20060;-89
2022/11/20 09:00:33;;;;;;;15.27;9.77;;;2.00;99.90;;;;;;4931977;29;20139;-88
2022/11/20 09:03:00;;;;;;;14.95;9.43;;;2.00;99.90;;;;;;4915476;29;20044;-88
2022/11/20 09:05:26;;;;;;;15.25;8.98;;;2.00;99.90;;;;;;4916870;29;20048;-88
2022/11/20 09:07:55;;;;;;;15.77;9.15;;;2.00;99.90;;;;;;4917155;29;20048;-88
2022/11/20 09:10:21;;;;;;;14.63;8.88;;;2.00;99.90;;;;;;4916524;29;20069;-88
2022/11/20 09:12:49;;;;;;;15.43;9.38;;;2.00;99.90;;;;;;4915482;29;20054;-89
2022/11/20 09:15:14;;;;;;;14.93;8.80;;;2.10;99.90;;;;;;4917440;29;20048;-88
2022/11/20 09:17:40;;;;;;;13.50;9.20;;;2.10;99.90;;;;;;4916707;29;20457;-88
2022/11/20 09:20:06;;;;;;;15.75;8.75;;;2.10;99.90;;;;;;4917673;29;20051;-87
2022/11/20 09:22:32;;;;;;;12.10;7.90;;;2.20;99.90;;;;;;4915570;29;20131;-88
2022/11/20 09:24:58;;;;;;;13.00;8.57;;;2.20;99.90;;;;;;4916257;29;20091;-88
2022/11/20 09:27:23;;;;;;;13.15;8.73;;;2.20;99.90;;;;;;4917913;29;20048;-88
2022/11/20 09:29:49;;;;;;;13.45;8.98;;;2.20;99.90;;;;;;4917650;29;20036;-88
2022/11/20 09:32:15;;;;;;;13.88;8.75;;;2.20;99.90;;;;;;4916309;29;20503;-88
2022/11/20 09:34:40;;;;;;;15.20;9.00;;;2.20;99.90;;;;;;4917082;29;20046;-88
2022/11/20 09:37:06;;;;;;;14.30;9.07;;;2.20;99.90;;;;;;4916620;29;20056;-88
2022/11/20 09:39:31;;;;;;;16.55;9.43;;;2.30;99.90;;;;;;4914659;29;20064;-88
2022/11/20 09:42:27;;;;;;;12.88;8.10;;;2.30;99.90;;;;;;4915580;29;20112;-87
2022/11/20 09:45:44;;;;;;;12.98;7.82;;;2.30;99.90;;;;;;4916511;29;20079;-88
2022/11/20 09:48:47;;;;;;;12.52;8.55;;;2.30;99.90;;;;;;4918198;29;20055;-88
2022/11/20 09:51:15;;;;;;;13.32;8.65;;;2.40;99.90;;;;;;4931252;29;20055;-88
2022/11/20 09:53:53;;;;;;;13.23;7.68;;;2.40;99.90;;;;;;4914310;29;20131;-88
2022/11/20 09:56:20;;;;;;;11.70;8.13;;;2.40;99.90;;;;;;4916092;29;20048;-88
2022/11/20 09:58:49;;;;;;;13.68;8.18;;;2.40;99.90;;;;;;4914858;29;20060;-88
2022/11/20 10:01:16;;;;;;;12.60;8.55;;;2.50;99.90;;;;;;4917007;29;20060;-89
2022/11/20 10:04:05;;;;;;;13.77;8.45;;;2.50;99.90;;;;;;4915694;29;20051;-88
2022/11/20 10:06:51;;;;;;;11.15;7.57;;;2.50;99.90;;;;;;4914320;29;20207;-88
2022/11/20 10:09:38;;;;;;;11.70;8.25;;;2.50;99.90;;;;;;4915739;29;20044;-88
2022/11/20 10:12:12;;;;;;;12.02;8.13;;;2.60;99.90;;;;;;4915461;29;20055;-89
2022/11/20 10:15:14;;;;;;;12.10;8.25;;;2.50;99.90;;;;;;4914930;29;20044;-88
2022/11/20 10:17:52;;;;;;;12.32;8.05;;;2.50;99.90;;;;;;4915683;29;20052;-88
2022/11/20 10:20:45;;;;;;;13.38;8.57;;;2.60;99.90;;;;;;4914471;29;20075;-89
2022/11/20 10:23:33;;;;;;;13.13;8.00;;;2.60;99.90;;;;;;4915194;29;20048;-89
2022/11/20 10:26:13;;;;;;;12.15;8.00;;;2.60;99.90;;;;;;4919136;29;20059;-88
2022/11/20 10:29:09;;;;;;;12.82;8.23;;;2.60;99.90;;;;;;4920191;29;20040;-88
2022/11/20 10:31:38;;;;;;;11.95;7.88;;;2.60;99.90;;;;;;4918789;29;20052;-88
2022/11/20 10:34:14;;;;;;;12.00;7.78;;;2.60;99.90;;;;;;4918662;29;20048;-88
2022/11/20 10:36:52;;;;;;;10.95;7.70;;;2.70;99.90;;;;;;4918949;29;20492;-88
2022/11/20 10:39:34;;;;;;;12.30;8.07;;;2.70;99.80;;;;;;4918809;29;20048;-88
2022/11/20 10:42:00;;;;;;;11.82;7.45;;;2.70;99.70;;;;;;4918657;29;20055;-88
2022/11/20 10:47:16;;;;;;;10.98;7.90;;;2.80;99.90;;;;;;4918597;29;20126;-88
2022/11/20 10:49:45;;;;;;;10.68;7.13;;;2.70;99.90;;;;;;4919724;29;20040;-88
2022/11/20 10:52:37;;;;;;;11.27;7.80;;;2.80;99.70;;;;;;4918164;29;20048;-88
2022/11/20 10:55:28;;;;;;;10.63;7.32;;;2.80;99.60;;;;;;4918037;29;20066;-88
2022/11/20 10:58:31;;;;;;;11.27;7.35;;;2.80;99.60;;;;;;4920087;29;20143;-88
2022/11/20 11:01:18;;;;;;;11.17;7.73;;;2.90;99.70;;;;;;4918325;29;20542;-88
2022/11/20 11:03:43;;;;;;;11.43;7.18;;;2.90;99.70;;;;;;4917891;29;20488;-88
2022/11/20 11:06:40;;;;;;;13.70;8.85;;;2.90;99.70;;;;;;4919682;29;20043;-88
2022/11/20 11:09:17;;;;;;;11.75;7.90;;;2.90;99.60;;;;;;4917555;29;20084;-89
2022/11/20 11:11:42;;;;;;;10.65;7.50;;;2.90;99.40;;;;;;4918755;29;20055;-89
2022/11/20 11:14:13;;;;;;;10.65;7.15;;;3.00;99.40;;;;;;4918582;29;20036;-88
2022/11/20 11:16:56;;;;;;;10.85;7.60;;;3.00;99.40;;;;;;4918502;29;20044;-88
2022/11/20 11:19:22;;;;;;;11.35;7.50;;;3.10;99.40;;;;;;4919394;29;20412;-88
2022/11/20 11:21:52;;;;;;;10.27;6.88;;;3.00;99.40;;;;;;4919682;29;20515;-88
2022/11/20 11:24:29;;;;;;;10.18;6.43;;;3.10;99.40;;;;;;4917262;29;20040;-88
2022/11/20 11:27:04;;;;;;;9.23;6.22;;;3.10;99.30;;;;;;4918037;29;20127;-89
2022/11/20 11:29:30;;;;;;;9.40;6.20;;;3.10;99.00;;;;;;4918581;29;20048;-88
2022/11/20 11:32:11;;;;;;;11.35;6.82;;;3.10;98.90;;;;;;4918546;29;20056;-89
2022/11/20 11:34:36;;;;;;;9.73;6.28;;;3.20;98.70;;;;;;4918521;29;20515;-90
2022/11/20 11:37:03;;;;;;;10.25;6.80;;;3.20;98.60;;;;;;4917164;29;20050;-89
2022/11/20 11:39:31;;;;;;;9.80;6.82;;;3.20;98.40;;;;;;4917910;29;20099;-88
2022/11/20 11:42:00;;;;;;;10.75;6.53;;;3.20;98.40;;;;;;4917834;29;20059;-89
2022/11/20 11:47:29;;;;;;;11.35;6.80;;;3.20;98.30;;;;;;4919080;29;20111;-89
2022/11/20 11:50:13;;;;;;;9.23;6.38;;;3.30;98.40;;;;;;4919310;29;20048;-89
2022/11/20 11:52:50;;;;;;;11.48;6.97;;;3.30;98.50;;;;;;4918434;29;20048;-89
2022/11/20 11:55:54;;;;;;;10.98;6.85;;;3.30;98.30;;;;;;4923850;29;20122;-88
2022/11/20 11:58:19;;;;;;;;;;;3.30;98.00;;;;;;4924934;29;20139;-89
2022/11/20 12:00:58;;;;;;;9.45;6.40;;;3.30;98.00;;;;;;4925981;29;19971;-90
2022/11/20 12:03:37;;;;;;;10.40;6.82;;;3.30;98.30;;;;;;4917941;29;20044;-89
2022/11/20 12:06:11;;;;;;;10.50;6.53;;;3.30;98.30;;;;;;4917657;29;20048;-89
2022/11/20 12:08:49;;;;;;;8.77;6.13;;;3.40;98.20;;;;;;4917644;29;20055;-90
2022/11/20 12:11:24;;;;;;;10.57;6.93;;;3.40;98.10;;;;;;4917844;29;20044;-89
2022/11/20 12:13:58;;;;;;;9.05;6.10;;;3.40;98.00;;;;;;4916868;29;20067;-89
2022/11/20 12:16:24;;;;;;;9.40;6.40;;;3.40;97.80;;;;;;4916962;29;20047;-89
2022/11/20 12:18:52;;;;;;;9.48;6.13;;;3.50;97.80;;;;;;4918542;29;20075;-90
2022/11/20 12:21:24;;;;;;;9.00;5.90;;;3.50;97.90;;;;;;4916456;29;20107;-89
2022/11/20 12:24:24;;;;;;;9.25;5.75;;;3.50;97.70;;;;;;4918721;29;20054;-90
2022/11/20 12:27:05;;;;;;;11.13;6.95;;;3.50;97.20;;;;;;4918002;29;20048;-90
2022/11/20 12:29:40;;;;;;;7.75;5.07;;;3.50;97.40;;;;;;4917719;29;20048;-89
2022/11/20 12:32:15;;;;;;;8.07;4.85;;;3.50;97.20;;;;;;4917909;29;20056;-91
2022/11/20 12:35:04;;;;;;;8.93;5.93;;;3.50;96.30;;;;;;4916830;29;20052;-90
2022/11/20 12:37:38;;;;;;;8.45;5.18;;;3.50;96.40;;;;;;4917857;29;20103;-90
2022/11/20 12:40:34;;;;;;;7.50;4.72;;;3.50;96.20;;;;;;4917116;29;20047;-90
2022/11/20 12:46:01;;;;;;;10.23;5.90;;;3.50;95.60;;;;;;4916492;29;20085;-90
2022/11/20 12:48:55;;;;;;;8.65;5.85;;;3.50;96.00;;;;;;4931513;29;20056;-90
2022/11/20 12:52:00;;;;;;;8.80;5.97;;;3.60;95.90;;;;;;4917111;29;20055;-90
2022/11/20 12:55:07;;;;;;;8.40;5.80;;;3.60;96.20;;;;;;4915845;29;20063;-90
2022/11/20 12:57:53;;;;;;;9.18;5.85;;;3.60;96.40;;;;;;4935303;29;20063;-90
2022/11/20 13:00:23;;;;;;;8.73;5.82;;;3.70;96.70;;;;;;4917724;29;20056;-90
2022/11/20 13:02:52;;;;;;;10.52;6.40;;;3.70;96.90;;;;;;4916609;29;20086;-89
2022/11/20 13:05:24;;;;;;;8.93;5.65;;;3.70;97.00;;;;;;4916522;29;20060;-90
2022/11/20 13:07:53;;;;;;;9.98;7.07;;;3.80;96.90;;;;;;4917824;29;20051;-90
2022/11/20 13:10:33;;;;;;;10.75;7.00;;;3.80;96.80;;;;;;4916095;29;20048;-89
2022/11/20 13:13:37;;;;;;;9.10;5.90;;;3.80;96.60;;;;;;4916821;29;20399;-90
2022/11/20 13:16:06;;;;;;;;;;;3.80;96.70;;;;;;4932221;29;20052;-89
2022/11/20 13:18:42;;;;;;;10.15;7.43;;;3.80;97.00;;;;;;4916418;29;20302;-90